LFSN METAR and TAF | Updated Today

LFSN METAR

Nancy-Essey Airport

Observation time: 24 min. ago

LFSN 292030Z AUTO 00000KT CAVOK 08/07 Q1007

Need help? Read our tutorial on how to read METARs or read the parsed version below.

Nancy-Essey Airport (LFSN) METAR

  • Weather conditions on Thu, 29 Sep 2022 20:30:00 +0000 (24 min. ago):
  • Present conditions: Dry
  • Clouds: Clear skies
  • Visibility: Greater than 10 km
  • Wind: Calm
  • Temperature: 8 celsius
  • Dew point: 7 celsius
  • Pressure: 1007 millibars
  • Remarks: None


Useful to know...

  • Codes: LFSN/ENC
  • Airport elevation: 751ft
  • Municipality: Nancy/Essey
  • Country: France
  • Continent: Europe

LFSN TAF

Nancy-Essey Airport

TAF not found.